sensor_id;sensor_type;location;lat;lon;timestamp;P1;durP1;ratioP1;P2;durP2;ratioP2
38715;SDS011;24833;49.324;8.694;2023-11-21T00:00:35;3.10;;;1.25;;
38715;SDS011;24833;49.324;8.694;2023-11-21T00:03:02;1.50;;;1.35;;
38715;SDS011;24833;49.324;8.694;2023-11-21T00:05:30;3.13;;;1.20;;
38715;SDS011;24833;49.324;8.694;2023-11-21T00:07:57;3.15;;;1.08;;
38715;SDS011;24833;49.324;8.694;2023-11-21T00:10:24;3.45;;;1.23;;
38715;SDS011;24833;49.324;8.694;2023-11-21T00:12:51;3.40;;;1.00;;
38715;SDS011;24833;49.324;8.694;2023-11-21T00:15:21;1.58;;;1.13;;
38715;SDS011;24833;49.324;8.694;2023-11-21T00:17:48;2.55;;;1.40;;
38715;SDS011;24833;49.324;8.694;2023-11-21T00:20:16;5.28;;;1.40;;
38715;SDS011;24833;49.324;8.694;2023-11-21T00:22:43;2.65;;;1.10;;
38715;SDS011;24833;49.324;8.694;2023-11-21T00:25:10;4.82;;;1.10;;
38715;SDS011;24833;49.324;8.694;2023-11-21T00:27:41;3.78;;;1.33;;
38715;SDS011;24833;49.324;8.694;2023-11-21T00:30:08;2.78;;;1.27;;
38715;SDS011;24833;49.324;8.694;2023-11-21T00:32:36;2.60;;;1.13;;
38715;SDS011;24833;49.324;8.694;2023-11-21T00:35:04;2.25;;;1.45;;
38715;SDS011;24833;49.324;8.694;2023-11-21T00:37:32;4.45;;;1.33;;
38715;SDS011;24833;49.324;8.694;2023-11-21T00:39:59;4.05;;;1.83;;
38715;SDS011;24833;49.324;8.694;2023-11-21T00:42:32;2.80;;;1.25;;
38715;SDS011;24833;49.324;8.694;2023-11-21T00:45:00;2.55;;;1.50;;
38715;SDS011;24833;49.324;8.694;2023-11-21T00:47:27;4.72;;;1.48;;
38715;SDS011;24833;49.324;8.694;2023-11-21T00:49:54;3.60;;;1.30;;
38715;SDS011;24833;49.324;8.694;2023-11-21T00:52:21;2.22;;;1.23;;
38715;SDS011;24833;49.324;8.694;2023-11-21T00:54:48;3.00;;;1.40;;
38715;SDS011;24833;49.324;8.694;2023-11-21T00:57:15;4.25;;;1.58;;
38715;SDS011;24833;49.324;8.694;2023-11-21T00:59:43;3.03;;;1.40;;
38715;SDS011;24833;49.324;8.694;2023-11-21T01:02:10;4.43;;;1.30;;
38715;SDS011;24833;49.324;8.694;2023-11-21T01:04:37;3.97;;;1.38;;
38715;SDS011;24833;49.324;8.694;2023-11-21T01:07:04;4.03;;;1.58;;
38715;SDS011;24833;49.324;8.694;2023-11-21T01:09:32;3.22;;;1.48;;
38715;SDS011;24833;49.324;8.694;2023-11-21T01:11:59;5.38;;;1.60;;
38715;SDS011;24833;49.324;8.694;2023-11-21T01:14:26;2.60;;;1.15;;
38715;SDS011;24833;49.324;8.694;2023-11-21T01:16:54;3.47;;;1.33;;
38715;SDS011;24833;49.324;8.694;2023-11-21T01:19:21;3.65;;;1.42;;
38715;SDS011;24833;49.324;8.694;2023-11-21T01:21:48;4.35;;;1.45;;
38715;SDS011;24833;49.324;8.694;2023-11-21T01:24:15;2.42;;;1.60;;
38715;SDS011;24833;49.324;8.694;2023-11-21T01:26:42;3.42;;;1.73;;
38715;SDS011;24833;49.324;8.694;2023-11-21T01:29:09;2.05;;;1.33;;
38715;SDS011;24833;49.324;8.694;2023-11-21T01:31:36;2.53;;;1.65;;
38715;SDS011;24833;49.324;8.694;2023-11-21T01:34:05;5.82;;;2.05;;
38715;SDS011;24833;49.324;8.694;2023-11-21T01:36:32;4.70;;;1.58;;
38715;SDS011;24833;49.324;8.694;2023-11-21T01:38:59;3.53;;;1.60;;
38715;SDS011;24833;49.324;8.694;2023-11-21T01:41:27;3.97;;;1.70;;
38715;SDS011;24833;49.324;8.694;2023-11-21T01:43:55;2.88;;;1.52;;
38715;SDS011;24833;49.324;8.694;2023-11-21T01:46:23;3.50;;;1.55;;
38715;SDS011;24833;49.324;8.694;2023-11-21T01:48:51;2.25;;;1.65;;
38715;SDS011;24833;49.324;8.694;2023-11-21T01:51:19;4.25;;;1.80;;
38715;SDS011;24833;49.324;8.694;2023-11-21T01:53:46;2.55;;;1.33;;
38715;SDS011;24833;49.324;8.694;2023-11-21T01:56:14;4.55;;;1.58;;
38715;SDS011;24833;49.324;8.694;2023-11-21T01:58:42;2.88;;;1.23;;
38715;SDS011;24833;49.324;8.694;2023-11-21T02:01:10;4.18;;;1.48;;
38715;SDS011;24833;49.324;8.694;2023-11-21T02:03:37;3.40;;;1.25;;
38715;SDS011;24833;49.324;8.694;2023-11-21T02:06:07;3.92;;;1.55;;
38715;SDS011;24833;49.324;8.694;2023-11-21T02:08:35;2.13;;;1.45;;
38715;SDS011;24833;49.324;8.694;2023-11-21T02:11:04;3.42;;;1.70;;
38715;SDS011;24833;49.324;8.694;2023-11-21T02:13:32;2.97;;;1.20;;
38715;SDS011;24833;49.324;8.694;2023-11-21T02:15:59;3.75;;;1.27;;
38715;SDS011;24833;49.324;8.694;2023-11-21T02:18:27;1.25;;;1.08;;
38715;SDS011;24833;49.324;8.694;2023-11-21T02:20:55;4.32;;;1.70;;
38715;SDS011;24833;49.324;8.694;2023-11-21T02:23:22;2.97;;;1.60;;
38715;SDS011;24833;49.324;8.694;2023-11-21T02:25:55;1.50;;;1.17;;
38715;SDS011;24833;49.324;8.694;2023-11-21T02:28:23;3.05;;;1.42;;
38715;SDS011;24833;49.324;8.694;2023-11-21T02:30:52;1.33;;;1.00;;
38715;SDS011;24833;49.324;8.694;2023-11-21T02:33:23;2.78;;;1.50;;
38715;SDS011;24833;49.324;8.694;2023-11-21T02:35:50;2.03;;;1.15;;
38715;SDS011;24833;49.324;8.694;2023-11-21T02:40:48;2.70;;;1.30;;
38715;SDS011;24833;49.324;8.694;2023-11-21T02:43:15;1.75;;;1.15;;
38715;SDS011;24833;49.324;8.694;2023-11-21T02:45:43;3.88;;;1.05;;
38715;SDS011;24833;49.324;8.694;2023-11-21T02:48:11;2.28;;;1.30;;
38715;SDS011;24833;49.324;8.694;2023-11-21T02:50:38;2.08;;;1.35;;
38715;SDS011;24833;49.324;8.694;2023-11-21T02:53:05;3.33;;;1.33;;
38715;SDS011;24833;49.324;8.694;2023-11-21T02:55:32;4.53;;;1.25;;
38715;SDS011;24833;49.324;8.694;2023-11-21T02:58:01;3.50;;;1.00;;
38715;SDS011;24833;49.324;8.694;2023-11-21T03:00:30;1.50;;;0.90;;
38715;SDS011;24833;49.324;8.694;2023-11-21T03:02:57;1.10;;;0.80;;
38715;SDS011;24833;49.324;8.694;2023-11-21T03:05:25;3.53;;;1.20;;
38715;SDS011;24833;49.324;8.694;2023-11-21T03:07:52;2.25;;;1.27;;
38715;SDS011;24833;49.324;8.694;2023-11-21T03:10:19;2.47;;;1.05;;
38715;SDS011;24833;49.324;8.694;2023-11-21T03:12:46;2.22;;;0.82;;
38715;SDS011;24833;49.324;8.694;2023-11-21T03:15:13;2.85;;;1.15;;
38715;SDS011;24833;49.324;8.694;2023-11-21T03:17:42;3.00;;;1.15;;
38715;SDS011;24833;49.324;8.694;2023-11-21T03:20:09;1.98;;;0.93;;
38715;SDS011;24833;49.324;8.694;2023-11-21T03:22:38;1.83;;;0.98;;
38715;SDS011;24833;49.324;8.694;2023-11-21T03:25:06;1.85;;;1.00;;
38715;SDS011;24833;49.324;8.694;2023-11-21T03:27:37;1.60;;;0.90;;
38715;SDS011;24833;49.324;8.694;2023-11-21T03:30:07;1.13;;;0.90;;
38715;SDS011;24833;49.324;8.694;2023-11-21T03:32:35;3.55;;;1.23;;
38715;SDS011;24833;49.324;8.694;2023-11-21T03:35:03;2.40;;;1.15;;
38715;SDS011;24833;49.324;8.694;2023-11-21T03:37:32;1.27;;;0.98;;
38715;SDS011;24833;49.324;8.694;2023-11-21T03:40:00;1.67;;;1.10;;
38715;SDS011;24833;49.324;8.694;2023-11-21T03:42:27;2.80;;;1.40;;
38715;SDS011;24833;49.324;8.694;2023-11-21T03:44:54;2.22;;;1.35;;
38715;SDS011;24833;49.324;8.694;2023-11-21T03:47:22;3.67;;;1.58;;
38715;SDS011;24833;49.324;8.694;2023-11-21T03:49:49;3.50;;;1.75;;
38715;SDS011;24833;49.324;8.694;2023-11-21T03:52:16;3.95;;;1.80;;
38715;SDS011;24833;49.324;8.694;2023-11-21T03:54:43;3.05;;;1.75;;
38715;SDS011;24833;49.324;8.694;2023-11-21T03:57:10;2.47;;;1.83;;
38715;SDS011;24833;49.324;8.694;2023-11-21T03:59:42;2.33;;;1.98;;
38715;SDS011;24833;49.324;8.694;2023-11-21T04:02:10;2.67;;;2.10;;
38715;SDS011;24833;49.324;8.694;2023-11-21T04:04:37;4.40;;;2.00;;
38715;SDS011;24833;49.324;8.694;2023-11-21T04:07:04;6.18;;;2.20;;
38715;SDS011;24833;49.324;8.694;2023-11-21T04:09:31;3.75;;;2.05;;
38715;SDS011;24833;49.324;8.694;2023-11-21T04:11:58;2.35;;;1.67;;
38715;SDS011;24833;49.324;8.694;2023-11-21T04:14:25;2.55;;;1.88;;
38715;SDS011;24833;49.324;8.694;2023-11-21T04:16:52;3.00;;;1.80;;
38715;SDS011;24833;49.324;8.694;2023-11-21T04:19:20;2.63;;;2.35;;
38715;SDS011;24833;49.324;8.694;2023-11-21T04:21:47;4.28;;;2.17;;
38715;SDS011;24833;49.324;8.694;2023-11-21T04:24:15;6.65;;;2.45;;
38715;SDS011;24833;49.324;8.694;2023-11-21T04:26:43;5.30;;;2.30;;
38715;SDS011;24833;49.324;8.694;2023-11-21T04:29:11;3.65;;;2.15;;
38715;SDS011;24833;49.324;8.694;2023-11-21T04:31:38;5.05;;;2.53;;
38715;SDS011;24833;49.324;8.694;2023-11-21T04:34:05;5.28;;;2.58;;
38715;SDS011;24833;49.324;8.694;2023-11-21T04:36:32;2.65;;;2.10;;
38715;SDS011;24833;49.324;8.694;2023-11-21T04:38:59;4.45;;;2.08;;
38715;SDS011;24833;49.324;8.694;2023-11-21T04:41:26;4.15;;;2.17;;
38715;SDS011;24833;49.324;8.694;2023-11-21T04:43:53;3.40;;;2.40;;
38715;SDS011;24833;49.324;8.694;2023-11-21T04:46:20;4.40;;;2.45;;
38715;SDS011;24833;49.324;8.694;2023-11-21T04:48:48;4.00;;;2.38;;
38715;SDS011;24833;49.324;8.694;2023-11-21T04:51:15;4.38;;;2.75;;
38715;SDS011;24833;49.324;8.694;2023-11-21T04:53:42;3.97;;;2.38;;
38715;SDS011;24833;49.324;8.694;2023-11-21T04:56:09;4.40;;;2.90;;
38715;SDS011;24833;49.324;8.694;2023-11-21T04:58:37;6.40;;;2.83;;
38715;SDS011;24833;49.324;8.694;2023-11-21T05:01:07;4.80;;;2.63;;
38715;SDS011;24833;49.324;8.694;2023-11-21T05:03:34;4.65;;;2.65;;
38715;SDS011;24833;49.324;8.694;2023-11-21T05:06:02;2.92;;;2.65;;
38715;SDS011;24833;49.324;8.694;2023-11-21T05:08:31;4.30;;;2.88;;
38715;SDS011;24833;49.324;8.694;2023-11-21T05:10:58;3.70;;;2.97;;
38715;SDS011;24833;49.324;8.694;2023-11-21T05:13:25;3.85;;;3.08;;
38715;SDS011;24833;49.324;8.694;2023-11-21T05:15:54;3.88;;;2.72;;
38715;SDS011;24833;49.324;8.694;2023-11-21T05:18:24;6.20;;;3.03;;
38715;SDS011;24833;49.324;8.694;2023-11-21T05:20:56;5.43;;;3.50;;
38715;SDS011;24833;49.324;8.694;2023-11-21T05:23:23;4.80;;;3.03;;
38715;SDS011;24833;49.324;8.694;2023-11-21T05:25:51;2.88;;;2.60;;
38715;SDS011;24833;49.324;8.694;2023-11-21T05:28:18;8.38;;;3.08;;
38715;SDS011;24833;49.324;8.694;2023-11-21T05:30:45;6.20;;;3.15;;
38715;SDS011;24833;49.324;8.694;2023-11-21T05:33:12;3.72;;;2.47;;
38715;SDS011;24833;49.324;8.694;2023-11-21T05:35:39;4.88;;;3.03;;
38715;SDS011;24833;49.324;8.694;2023-11-21T05:38:06;4.07;;;2.60;;
38715;SDS011;24833;49.324;8.694;2023-11-21T05:40:33;4.03;;;2.38;;
38715;SDS011;24833;49.324;8.694;2023-11-21T05:43:00;4.35;;;3.08;;
38715;SDS011;24833;49.324;8.694;2023-11-21T05:45:28;4.10;;;3.10;;
38715;SDS011;24833;49.324;8.694;2023-11-21T05:47:57;6.78;;;3.13;;
38715;SDS011;24833;49.324;8.694;2023-11-21T05:50:25;6.50;;;3.00;;
38715;SDS011;24833;49.324;8.694;2023-11-21T05:52:52;3.72;;;2.63;;
38715;SDS011;24833;49.324;8.694;2023-11-21T05:55:19;3.28;;;2.97;;
38715;SDS011;24833;49.324;8.694;2023-11-21T05:57:51;4.07;;;3.13;;
38715;SDS011;24833;49.324;8.694;2023-11-21T06:00:19;3.05;;;2.53;;
38715;SDS011;24833;49.324;8.694;2023-11-21T06:02:51;3.10;;;2.70;;
38715;SDS011;24833;49.324;8.694;2023-11-21T06:05:24;3.35;;;2.50;;
38715;SDS011;24833;49.324;8.694;2023-11-21T06:07:53;3.53;;;2.70;;
38715;SDS011;24833;49.324;8.694;2023-11-21T06:10:22;4.13;;;2.97;;
38715;SDS011;24833;49.324;8.694;2023-11-21T06:12:53;2.95;;;2.40;;
38715;SDS011;24833;49.324;8.694;2023-11-21T06:15:20;3.75;;;2.83;;
38715;SDS011;24833;49.324;8.694;2023-11-21T06:17:49;2.85;;;2.33;;
38715;SDS011;24833;49.324;8.694;2023-11-21T06:20:21;3.25;;;2.72;;
38715;SDS011;24833;49.324;8.694;2023-11-21T06:22:49;4.18;;;2.78;;
38715;SDS011;24833;49.324;8.694;2023-11-21T06:25:17;3.53;;;2.83;;
38715;SDS011;24833;49.324;8.694;2023-11-21T06:27:47;3.63;;;2.45;;
38715;SDS011;24833;49.324;8.694;2023-11-21T06:30:15;7.03;;;3.00;;
38715;SDS011;24833;49.324;8.694;2023-11-21T06:32:42;3.70;;;2.92;;
38715;SDS011;24833;49.324;8.694;2023-11-21T06:35:13;4.22;;;3.22;;
38715;SDS011;24833;49.324;8.694;2023-11-21T06:37:42;4.30;;;3.05;;
38715;SDS011;24833;49.324;8.694;2023-11-21T06:40:14;3.03;;;2.78;;
38715;SDS011;24833;49.324;8.694;2023-11-21T06:42:41;3.40;;;2.83;;
38715;SDS011;24833;49.324;8.694;2023-11-21T06:45:10;3.88;;;3.20;;
38715;SDS011;24833;49.324;8.694;2023-11-21T06:47:38;4.80;;;3.22;;
38715;SDS011;24833;49.324;8.694;2023-11-21T06:50:06;3.45;;;2.92;;
38715;SDS011;24833;49.324;8.694;2023-11-21T06:52:34;3.40;;;3.10;;
38715;SDS011;24833;49.324;8.694;2023-11-21T06:57:34;5.32;;;3.22;;
38715;SDS011;24833;49.324;8.694;2023-11-21T07:00:02;4.40;;;3.42;;
38715;SDS011;24833;49.324;8.694;2023-11-21T07:02:30;4.72;;;3.85;;
38715;SDS011;24833;49.324;8.694;2023-11-21T07:04:58;3.97;;;3.60;;
38715;SDS011;24833;49.324;8.694;2023-11-21T07:07:25;4.10;;;3.35;;
38715;SDS011;24833;49.324;8.694;2023-11-21T07:09:53;3.80;;;3.50;;
38715;SDS011;24833;49.324;8.694;2023-11-21T07:12:20;4.72;;;3.95;;
38715;SDS011;24833;49.324;8.694;2023-11-21T07:14:50;4.50;;;3.95;;
38715;SDS011;24833;49.324;8.694;2023-11-21T07:17:17;4.47;;;3.72;;
38715;SDS011;24833;49.324;8.694;2023-11-21T07:19:44;5.40;;;3.97;;
38715;SDS011;24833;49.324;8.694;2023-11-21T07:22:11;4.35;;;3.83;;
38715;SDS011;24833;49.324;8.694;2023-11-21T07:24:40;6.20;;;4.15;;
38715;SDS011;24833;49.324;8.694;2023-11-21T07:27:07;4.03;;;3.63;;
38715;SDS011;24833;49.324;8.694;2023-11-21T07:29:34;4.32;;;3.85;;
38715;SDS011;24833;49.324;8.694;2023-11-21T07:32:01;4.40;;;4.03;;
38715;SDS011;24833;49.324;8.694;2023-11-21T07:34:29;5.13;;;4.22;;
38715;SDS011;24833;49.324;8.694;2023-11-21T07:36:56;5.10;;;4.25;;
38715;SDS011;24833;49.324;8.694;2023-11-21T07:39:23;4.47;;;3.60;;
38715;SDS011;24833;49.324;8.694;2023-11-21T07:41:50;4.93;;;4.18;;
38715;SDS011;24833;49.324;8.694;2023-11-21T07:44:17;5.38;;;4.88;;
38715;SDS011;24833;49.324;8.694;2023-11-21T07:46:44;6.60;;;4.93;;
38715;SDS011;24833;49.324;8.694;2023-11-21T07:49:12;5.70;;;4.32;;
38715;SDS011;24833;49.324;8.694;2023-11-21T07:51:43;6.60;;;5.93;;
38715;SDS011;24833;49.324;8.694;2023-11-21T07:54:10;6.85;;;5.70;;
38715;SDS011;24833;49.324;8.694;2023-11-21T07:56:38;6.22;;;5.32;;
38715;SDS011;24833;49.324;8.694;2023-11-21T07:59:05;6.40;;;5.78;;
38715;SDS011;24833;49.324;8.694;2023-11-21T08:01:32;6.88;;;6.18;;
38715;SDS011;24833;49.324;8.694;2023-11-21T08:03:59;6.88;;;5.82;;
38715;SDS011;24833;49.324;8.694;2023-11-21T08:06:30;6.93;;;6.22;;
38715;SDS011;24833;49.324;8.694;2023-11-21T08:08:57;8.23;;;7.43;;
38715;SDS011;24833;49.324;8.694;2023-11-21T08:11:25;9.02;;;7.43;;
38715;SDS011;24833;49.324;8.694;2023-11-21T08:13:57;9.15;;;7.05;;
38715;SDS011;24833;49.324;8.694;2023-11-21T08:16:25;7.53;;;6.75;;
38715;SDS011;24833;49.324;8.694;2023-11-21T08:18:54;9.52;;;7.43;;
38715;SDS011;24833;49.324;8.694;2023-11-21T08:21:21;9.07;;;7.95;;
38715;SDS011;24833;49.324;8.694;2023-11-21T08:23:51;9.68;;;7.30;;
38715;SDS011;24833;49.324;8.694;2023-11-21T08:26:21;9.23;;;8.25;;
38715;SDS011;24833;49.324;8.694;2023-11-21T08:28:49;9.35;;;7.93;;
38715;SDS011;24833;49.324;8.694;2023-11-21T08:31:23;11.98;;;8.35;;
38715;SDS011;24833;49.324;8.694;2023-11-21T08:33:53;12.05;;;9.55;;
38715;SDS011;24833;49.324;8.694;2023-11-21T08:36:23;8.43;;;7.57;;
38715;SDS011;24833;49.324;8.694;2023-11-21T08:38:51;12.70;;;9.02;;
38715;SDS011;24833;49.324;8.694;2023-11-21T08:41:19;11.25;;;9.38;;
38715;SDS011;24833;49.324;8.694;2023-11-21T08:43:52;12.87;;;10.07;;
38715;SDS011;24833;49.324;8.694;2023-11-21T08:46:21;11.18;;;9.25;;
38715;SDS011;24833;49.324;8.694;2023-11-21T08:48:49;10.15;;;9.00;;
38715;SDS011;24833;49.324;8.694;2023-11-21T08:51:19;12.75;;;10.73;;
38715;SDS011;24833;49.324;8.694;2023-11-21T08:53:46;14.05;;;10.95;;
38715;SDS011;24833;49.324;8.694;2023-11-21T08:56:13;13.10;;;10.77;;
38715;SDS011;24833;49.324;8.694;2023-11-21T08:58:41;14.35;;;10.52;;
38715;SDS011;24833;49.324;8.694;2023-11-21T09:01:08;13.00;;;11.02;;
38715;SDS011;24833;49.324;8.694;2023-11-21T09:03:35;12.13;;;10.50;;
38715;SDS011;24833;49.324;8.694;2023-11-21T09:06:03;13.02;;;10.98;;
38715;SDS011;24833;49.324;8.694;2023-11-21T09:08:30;13.18;;;10.45;;
38715;SDS011;24833;49.324;8.694;2023-11-21T09:10:58;12.18;;;9.88;;
38715;SDS011;24833;49.324;8.694;2023-11-21T09:13:25;13.45;;;11.25;;
38715;SDS011;24833;49.324;8.694;2023-11-21T09:15:52;13.40;;;11.88;;
38715;SDS011;24833;49.324;8.694;2023-11-21T09:18:19;15.45;;;12.55;;
38715;SDS011;24833;49.324;8.694;2023-11-21T09:20:46;13.90;;;11.50;;
38715;SDS011;24833;49.324;8.694;2023-11-21T09:23:13;14.48;;;11.75;;
38715;SDS011;24833;49.324;8.694;2023-11-21T09:25:40;15.90;;;12.35;;
38715;SDS011;24833;49.324;8.694;2023-11-21T09:28:07;12.15;;;10.85;;
38715;SDS011;24833;49.324;8.694;2023-11-21T09:30:35;14.20;;;11.57;;
38715;SDS011;24833;49.324;8.694;2023-11-21T09:33:02;13.50;;;11.98;;
38715;SDS011;24833;49.324;8.694;2023-11-21T09:35:34;15.38;;;12.07;;
38715;SDS011;24833;49.324;8.694;2023-11-21T09:38:01;13.43;;;11.05;;
38715;SDS011;24833;49.324;8.694;2023-11-21T09:40:32;12.65;;;11.32;;
38715;SDS011;24833;49.324;8.694;2023-11-21T09:42:59;13.75;;;12.27;;
38715;SDS011;24833;49.324;8.694;2023-11-21T09:45:29;13.07;;;11.30;;
38715;SDS011;24833;49.324;8.694;2023-11-21T09:48:01;13.52;;;10.63;;
38715;SDS011;24833;49.324;8.694;2023-11-21T09:50:29;11.75;;;9.88;;
38715;SDS011;24833;49.324;8.694;2023-11-21T09:55:47;10.70;;;9.48;;
38715;SDS011;24833;49.324;8.694;2023-11-21T09:58:18;10.75;;;7.78;;
38715;SDS011;24833;49.324;8.694;2023-11-21T10:00:47;10.15;;;8.77;;
38715;SDS011;24833;49.324;8.694;2023-11-21T10:03:15;11.15;;;9.07;;
38715;SDS011;24833;49.324;8.694;2023-11-21T10:05:43;8.52;;;7.63;;
38715;SDS011;24833;49.324;8.694;2023-11-21T10:08:13;9.52;;;8.55;;
38715;SDS011;24833;49.324;8.694;2023-11-21T10:10:44;10.20;;;8.50;;
38715;SDS011;24833;49.324;8.694;2023-11-21T10:13:15;10.13;;;8.50;;
38715;SDS011;24833;49.324;8.694;2023-11-21T10:15:49;8.90;;;7.57;;
38715;SDS011;24833;49.324;8.694;2023-11-21T10:18:20;9.10;;;8.15;;
38715;SDS011;24833;49.324;8.694;2023-11-21T10:20:49;9.18;;;8.10;;
38715;SDS011;24833;49.324;8.694;2023-11-21T10:23:21;8.02;;;7.22;;
38715;SDS011;24833;49.324;8.694;2023-11-21T10:25:50;6.63;;;5.78;;
38715;SDS011;24833;49.324;8.694;2023-11-21T10:28:23;5.97;;;5.38;;
38715;SDS011;24833;49.324;8.694;2023-11-21T10:30:50;4.78;;;4.28;;
38715;SDS011;24833;49.324;8.694;2023-11-21T10:33:21;4.80;;;4.25;;
38715;SDS011;24833;49.324;8.694;2023-11-21T10:35:55;3.85;;;3.33;;
38715;SDS011;24833;49.324;8.694;2023-11-21T10:38:22;4.15;;;3.75;;
38715;SDS011;24833;49.324;8.694;2023-11-21T10:40:51;5.82;;;3.72;;
38715;SDS011;24833;49.324;8.694;2023-11-21T10:43:19;4.22;;;3.83;;
38715;SDS011;24833;49.324;8.694;2023-11-21T10:45:46;4.13;;;3.70;;
38715;SDS011;24833;49.324;8.694;2023-11-21T10:48:14;4.30;;;3.90;;
38715;SDS011;24833;49.324;8.694;2023-11-21T10:50:42;4.38;;;3.97;;
38715;SDS011;24833;49.324;8.694;2023-11-21T10:53:12;4.68;;;4.05;;
38715;SDS011;24833;49.324;8.694;2023-11-21T10:55:40;4.38;;;3.97;;
38715;SDS011;24833;49.324;8.694;2023-11-21T10:58:07;4.57;;;4.18;;
38715;SDS011;24833;49.324;8.694;2023-11-21T11:00:37;5.72;;;4.72;;
38715;SDS011;24833;49.324;8.694;2023-11-21T11:03:06;4.78;;;4.35;;
38715;SDS011;24833;49.324;8.694;2023-11-21T11:05:40;5.18;;;4.25;;
38715;SDS011;24833;49.324;8.694;2023-11-21T11:08:12;5.20;;;4.72;;
38715;SDS011;24833;49.324;8.694;2023-11-21T11:10:45;7.18;;;4.85;;
38715;SDS011;24833;49.324;8.694;2023-11-21T11:13:15;6.03;;;4.82;;
38715;SDS011;24833;49.324;8.694;2023-11-21T11:15:43;5.15;;;4.72;;
38715;SDS011;24833;49.324;8.694;2023-11-21T11:20:42;6.38;;;4.40;;
38715;SDS011;24833;49.324;8.694;2023-11-21T11:26:51;7.20;;;5.45;;
38715;SDS011;24833;49.324;8.694;2023-11-21T11:32:36;5.97;;;5.43;;
38715;SDS011;24833;49.324;8.694;2023-11-21T11:35:34;6.82;;;5.93;;
38715;SDS011;24833;49.324;8.694;2023-11-21T11:38:23;8.23;;;6.05;;
38715;SDS011;24833;49.324;8.694;2023-11-21T11:40:53;7.70;;;6.95;;
38715;SDS011;24833;49.324;8.694;2023-11-21T11:43:24;8.05;;;6.75;;
38715;SDS011;24833;49.324;8.694;2023-11-21T11:45:56;8.35;;;7.22;;
38715;SDS011;24833;49.324;8.694;2023-11-21T11:48:26;9.32;;;7.95;;
38715;SDS011;24833;49.324;8.694;2023-11-21T11:53:47;9.27;;;7.78;;
38715;SDS011;24833;49.324;8.694;2023-11-21T11:56:25;7.65;;;6.82;;
38715;SDS011;24833;49.324;8.694;2023-11-21T11:58:54;8.77;;;7.88;;
38715;SDS011;24833;49.324;8.694;2023-11-21T12:01:26;8.32;;;7.22;;
38715;SDS011;24833;49.324;8.694;2023-11-21T12:06:53;7.65;;;6.80;;
38715;SDS011;24833;49.324;8.694;2023-11-21T12:09:21;7.90;;;7.07;;
38715;SDS011;24833;49.324;8.694;2023-11-21T12:11:50;7.22;;;6.50;;
38715;SDS011;24833;49.324;8.694;2023-11-21T12:14:17;6.85;;;6.15;;
38715;SDS011;24833;49.324;8.694;2023-11-21T12:16:44;6.35;;;5.72;;
38715;SDS011;24833;49.324;8.694;2023-11-21T12:19:12;6.70;;;6.05;;
38715;SDS011;24833;49.324;8.694;2023-11-21T12:21:39;9.70;;;6.88;;
38715;SDS011;24833;49.324;8.694;2023-11-21T12:24:14;6.85;;;6.15;;
38715;SDS011;24833;49.324;8.694;2023-11-21T12:26:42;7.60;;;6.70;;
38715;SDS011;24833;49.324;8.694;2023-11-21T12:29:10;10.63;;;7.25;;
38715;SDS011;24833;49.324;8.694;2023-11-21T12:31:37;6.82;;;5.78;;
38715;SDS011;24833;49.324;8.694;2023-11-21T12:34:05;6.57;;;5.82;;
38715;SDS011;24833;49.324;8.694;2023-11-21T12:36:34;6.85;;;6.20;;
38715;SDS011;24833;49.324;8.694;2023-11-21T12:39:02;8.48;;;6.75;;
38715;SDS011;24833;49.324;8.694;2023-11-21T12:41:29;7.40;;;6.65;;
38715;SDS011;24833;49.324;8.694;2023-11-21T12:43:57;7.45;;;6.63;;
38715;SDS011;24833;49.324;8.694;2023-11-21T12:46:25;7.68;;;6.95;;
38715;SDS011;24833;49.324;8.694;2023-11-21T12:49:00;7.97;;;6.65;;
38715;SDS011;24833;49.324;8.694;2023-11-21T12:51:27;8.05;;;6.97;;
38715;SDS011;24833;49.324;8.694;2023-11-21T12:53:55;9.30;;;6.32;;
38715;SDS011;24833;49.324;8.694;2023-11-21T12:56:22;7.18;;;6.43;;
38715;SDS011;24833;49.324;8.694;2023-11-21T12:58:50;7.70;;;6.35;;
38715;SDS011;24833;49.324;8.694;2023-11-21T13:03:53;6.40;;;5.72;;
38715;SDS011;24833;49.324;8.694;2023-11-21T13:06:20;7.93;;;6.70;;
38715;SDS011;24833;49.324;8.694;2023-11-21T13:08:51;7.30;;;6.00;;
38715;SDS011;24833;49.324;8.694;2023-11-21T13:11:18;6.80;;;5.80;;
38715;SDS011;24833;49.324;8.694;2023-11-21T13:13:46;6.85;;;6.15;;
38715;SDS011;24833;49.324;8.694;2023-11-21T13:16:13;5.97;;;5.38;;
38715;SDS011;24833;49.324;8.694;2023-11-21T13:18:41;6.28;;;5.45;;
38715;SDS011;24833;49.324;8.694;2023-11-21T13:21:10;5.88;;;5.30;;
38715;SDS011;24833;49.324;8.694;2023-11-21T13:23:40;5.43;;;4.93;;
38715;SDS011;24833;49.324;8.694;2023-11-21T13:26:10;5.45;;;4.95;;
38715;SDS011;24833;49.324;8.694;2023-11-21T13:28:37;4.20;;;3.80;;
38715;SDS011;24833;49.324;8.694;2023-11-21T13:31:06;3.85;;;3.30;;
38715;SDS011;24833;49.324;8.694;2023-11-21T13:33:47;4.47;;;3.92;;
38715;SDS011;24833;49.324;8.694;2023-11-21T13:36:23;4.13;;;3.75;;
38715;SDS011;24833;49.324;8.694;2023-11-21T13:38:52;5.82;;;5.18;;
38715;SDS011;24833;49.324;8.694;2023-11-21T13:41:20;6.78;;;5.25;;
38715;SDS011;24833;49.324;8.694;2023-11-21T13:43:54;5.95;;;4.78;;
38715;SDS011;24833;49.324;8.694;2023-11-21T13:46:30;6.65;;;5.03;;
38715;SDS011;24833;49.324;8.694;2023-11-21T13:49:03;6.13;;;5.20;;
38715;SDS011;24833;49.324;8.694;2023-11-21T13:51:36;4.97;;;4.47;;
38715;SDS011;24833;49.324;8.694;2023-11-21T13:54:14;5.03;;;4.47;;
38715;SDS011;24833;49.324;8.694;2023-11-21T13:56:41;5.00;;;4.22;;
38715;SDS011;24833;49.324;8.694;2023-11-21T13:59:11;6.43;;;4.73;;
38715;SDS011;24833;49.324;8.694;2023-11-21T14:01:51;4.75;;;4.30;;
38715;SDS011;24833;49.324;8.694;2023-11-21T14:04:23;5.32;;;4.82;;
38715;SDS011;24833;49.324;8.694;2023-11-21T14:07:06;5.50;;;4.82;;
38715;SDS011;24833;49.324;8.694;2023-11-21T14:09:51;6.18;;;4.40;;
38715;SDS011;24833;49.324;8.694;2023-11-21T14:12:19;5.65;;;5.15;;
38715;SDS011;24833;49.324;8.694;2023-11-21T14:14:46;5.18;;;4.63;;
38715;SDS011;24833;49.324;8.694;2023-11-21T14:17:14;6.85;;;4.65;;
38715;SDS011;24833;49.324;8.694;2023-11-21T14:19:41;5.53;;;4.55;;
38715;SDS011;24833;49.324;8.694;2023-11-21T14:22:10;5.78;;;5.00;;
38715;SDS011;24833;49.324;8.694;2023-11-21T14:24:37;6.78;;;5.20;;
38715;SDS011;24833;49.324;8.694;2023-11-21T14:27:10;6.55;;;4.55;;
38715;SDS011;24833;49.324;8.694;2023-11-21T14:29:37;4.90;;;4.13;;
38715;SDS011;24833;49.324;8.694;2023-11-21T14:34:35;5.50;;;3.28;;
38715;SDS011;24833;49.324;8.694;2023-11-21T14:37:03;4.22;;;3.65;;
38715;SDS011;24833;49.324;8.694;2023-11-21T14:39:30;5.78;;;4.30;;
38715;SDS011;24833;49.324;8.694;2023-11-21T14:42:01;4.82;;;3.78;;
38715;SDS011;24833;49.324;8.694;2023-11-21T14:44:29;5.35;;;4.82;;
38715;SDS011;24833;49.324;8.694;2023-11-21T14:47:01;4.88;;;3.88;;
38715;SDS011;24833;49.324;8.694;2023-11-21T14:49:33;5.75;;;4.53;;
38715;SDS011;24833;49.324;8.694;2023-11-21T14:52:16;6.13;;;4.10;;
38715;SDS011;24833;49.324;8.694;2023-11-21T14:55:03;5.35;;;4.15;;
38715;SDS011;24833;49.324;8.694;2023-11-21T14:57:50;6.47;;;4.27;;
38715;SDS011;24833;49.324;8.694;2023-11-21T15:00:17;7.53;;;4.13;;
38715;SDS011;24833;49.324;8.694;2023-11-21T15:03:07;4.22;;;3.83;;
38715;SDS011;24833;49.324;8.694;2023-11-21T15:05:36;6.55;;;4.22;;
38715;SDS011;24833;49.324;8.694;2023-11-21T15:08:05;7.47;;;4.20;;
38715;SDS011;24833;49.324;8.694;2023-11-21T15:10:46;3.25;;;2.85;;
38715;SDS011;24833;49.324;8.694;2023-11-21T15:13:20;2.92;;;2.40;;
38715;SDS011;24833;49.324;8.694;2023-11-21T15:15:49;5.00;;;2.78;;
38715;SDS011;24833;49.324;8.694;2023-11-21T15:18:18;3.05;;;2.17;;
38715;SDS011;24833;49.324;8.694;2023-11-21T15:20:46;3.17;;;2.20;;
38715;SDS011;24833;49.324;8.694;2023-11-21T15:23:13;2.58;;;2.22;;